createdAt,value
2023-03-08T00:01:50.581Z,8.98
2023-03-08T00:03:53.413Z,7.72
2023-03-08T00:05:55.021Z,8.70
2023-03-08T00:07:56.551Z,8.38
2023-03-08T00:09:59.675Z,9.07
2023-03-08T00:12:01.215Z,8.90
2023-03-08T00:14:02.918Z,9.07
2023-03-08T00:16:07.251Z,9.43
2023-03-08T00:18:10.155Z,9.23
2023-03-08T00:20:13.608Z,8.63
2023-03-08T00:22:15.096Z,9.00
2023-03-08T00:24:19.686Z,9.00
2023-03-08T00:26:21.281Z,9.20
2023-03-08T00:28:22.969Z,8.90
2023-03-08T00:30:24.713Z,9.27
2023-03-08T00:32:26.785Z,9.00
2023-03-08T00:34:29.715Z,9.10
2023-03-08T00:36:31.417Z,9.70
2023-03-08T00:38:36.536Z,9.38
2023-03-08T00:40:38.078Z,9.88
2023-03-08T00:42:39.708Z,9.40
2023-03-08T00:44:41.346Z,9.88
2023-03-08T00:46:42.937Z,9.95
2023-03-08T00:48:44.548Z,10.10
2023-03-08T00:50:48.007Z,11.25
2023-03-08T00:52:49.720Z,9.90
2023-03-08T00:54:51.267Z,9.75
2023-03-08T00:56:52.833Z,9.52
2023-03-08T00:58:54.360Z,10.50
2023-03-08T01:00:56.024Z,8.93
2023-03-08T01:02:58.365Z,10.50
2023-03-08T01:05:00.002Z,8.68
2023-03-08T01:07:02.984Z,9.65
2023-03-08T01:09:04.579Z,9.30
2023-03-08T01:11:06.163Z,9.70
2023-03-08T01:13:08.517Z,8.48
2023-03-08T01:15:10.886Z,9.68
2023-03-08T01:17:12.390Z,9.75
2023-03-08T01:19:13.933Z,8.88
2023-03-08T01:21:16.115Z,9.32
2023-03-08T01:23:18.999Z,9.75
2023-03-08T01:25:20.499Z,10.02
2023-03-08T01:27:22.070Z,9.00
2023-03-08T01:29:23.638Z,9.57
2023-03-08T01:31:26.854Z,8.95
2023-03-08T01:33:28.564Z,9.60
2023-03-08T01:35:30.176Z,10.48
2023-03-08T01:37:32.337Z,9.50
2023-03-08T01:39:35.263Z,8.82
2023-03-08T01:41:36.932Z,9.15
2023-03-08T01:43:39.481Z,8.90
2023-03-08T01:46:08.139Z,9.65
2023-03-08T01:48:09.757Z,10.30
2023-03-08T01:50:13.375Z,9.30
2023-03-08T01:52:18.606Z,10.55
2023-03-08T01:54:25.192Z,9.70
2023-03-08T01:56:28.464Z,10.75
2023-03-08T01:58:30.480Z,10.57
2023-03-08T02:00:32.206Z,9.80
2023-03-08T02:02:43.780Z,11.75
2023-03-08T02:04:48.338Z,9.70
2023-03-08T02:07:14.767Z,10.30
2023-03-08T02:09:29.066Z,9.55
2023-03-08T02:11:55.211Z,10.40
2023-03-08T02:14:00.573Z,9.90
2023-03-08T02:16:23.249Z,9.98
2023-03-08T02:18:38.450Z,11.02
2023-03-08T02:20:46.367Z,9.32
2023-03-08T02:22:59.928Z,9.73
2023-03-08T02:27:48.338Z,9.82
2023-03-08T02:29:56.419Z,9.98
2023-03-08T02:32:10.004Z,9.98
2023-03-08T02:34:15.998Z,11.07
2023-03-08T02:36:44.489Z,9.55
2023-03-08T02:39:05.819Z,9.45
2023-03-08T02:41:15.955Z,9.20
2023-03-08T02:45:38.879Z,10.07
2023-03-08T02:47:45.816Z,9.65
2023-03-08T02:49:50.227Z,10.43
2023-03-08T02:52:06.020Z,10.77
2023-03-08T02:54:16.943Z,10.10
2023-03-08T02:56:23.261Z,10.40
2023-03-08T02:58:33.308Z,8.73
2023-03-08T03:00:41.262Z,10.30
2023-03-08T03:02:57.908Z,8.93
2023-03-08T03:05:03.237Z,9.32
2023-03-08T03:07:18.379Z,11.10
2023-03-08T03:09:57.410Z,9.77
2023-03-08T03:12:02.344Z,11.18
2023-03-08T03:14:14.798Z,10.15
2023-03-08T03:16:35.562Z,9.65
2023-03-08T03:18:59.821Z,9.65
2023-03-08T03:21:17.091Z,9.48
2023-03-08T03:23:28.590Z,10.07
2023-03-08T03:27:55.604Z,9.65
2023-03-08T03:30:00.432Z,10.38
2023-03-08T03:32:10.114Z,9.45
2023-03-08T03:34:18.278Z,10.38
2023-03-08T03:36:30.549Z,10.00
2023-03-08T03:38:41.967Z,10.90
2023-03-08T03:40:53.950Z,10.57
2023-03-08T03:43:04.904Z,10.95
2023-03-08T03:45:22.229Z,9.68
2023-03-08T03:47:30.452Z,10.50
2023-03-08T03:49:37.406Z,10.02
2023-03-08T03:51:52.057Z,10.15
2023-03-08T03:53:57.126Z,11.27
2023-03-08T03:56:10.914Z,11.00
2023-03-08T03:58:20.938Z,10.55
2023-03-08T04:00:29.200Z,10.98
2023-03-08T04:02:34.364Z,10.23
2023-03-08T04:04:41.715Z,10.63
2023-03-08T04:06:54.683Z,9.90
2023-03-08T04:11:36.252Z,10.98
2023-03-08T04:13:51.615Z,10.30
2023-03-08T04:15:58.858Z,10.93
2023-03-08T04:18:05.373Z,11.35
2023-03-08T04:20:14.577Z,11.05
2023-03-08T04:22:19.621Z,11.38
2023-03-08T04:24:21.660Z,11.65
2023-03-08T04:26:32.322Z,11.45
2023-03-08T04:30:57.858Z,11.75
2023-03-08T04:33:05.354Z,11.35
2023-03-08T04:35:24.453Z,11.18
2023-03-08T04:40:18.675Z,11.18
2023-03-08T04:42:35.708Z,11.40
2023-03-08T04:47:13.032Z,12.00
2023-03-08T04:49:31.058Z,12.35
2023-03-08T04:51:54.315Z,12.82
2023-03-08T04:56:37.852Z,12.13
2023-03-08T04:58:54.372Z,11.73
2023-03-08T05:01:02.945Z,12.38
2023-03-08T05:03:08.775Z,11.77
2023-03-08T05:05:21.831Z,12.15
2023-03-08T05:07:35.250Z,12.90
2023-03-08T05:09:47.737Z,13.25
2023-03-08T05:29:58.022Z,12.90
2023-03-08T05:34:33.012Z,13.13
2023-03-08T05:36:38.059Z,13.77
2023-03-08T05:38:55.298Z,12.77
2023-03-08T05:44:52.108Z,12.60
2023-03-08T06:36:27.063Z,13.48
2023-03-08T06:45:30.199Z,13.00
2023-03-08T06:47:35.764Z,12.77
2023-03-08T06:49:56.456Z,12.50
2023-03-08T06:52:16.233Z,14.32
2023-03-08T06:54:28.062Z,14.15
2023-03-08T06:56:34.034Z,11.68
2023-03-08T06:58:48.164Z,12.65
2023-03-08T07:03:30.404Z,13.13
2023-03-08T07:05:32.767Z,11.80
2023-03-08T07:07:41.814Z,13.10
2023-03-08T07:09:48.536Z,12.20
2023-03-08T07:11:50.818Z,12.45
2023-03-08T07:13:56.781Z,11.57
2023-03-08T07:16:07.784Z,12.10
2023-03-08T07:18:16.012Z,12.52
2023-03-08T07:20:35.993Z,12.07
2023-03-08T07:22:52.616Z,12.70
2023-03-08T07:24:56.834Z,13.25
2023-03-08T07:27:03.625Z,12.38
2023-03-08T07:29:11.118Z,12.70
2023-03-08T07:31:17.779Z,11.63
2023-03-08T07:33:36.015Z,13.48
2023-03-08T07:35:53.972Z,13.02
2023-03-08T07:38:09.649Z,13.77
2023-03-08T07:40:18.167Z,13.60
2023-03-08T07:42:47.682Z,13.35
2023-03-08T07:45:03.291Z,14.57
2023-03-08T07:47:06.238Z,14.02
2023-03-08T07:49:07.816Z,14.40
2023-03-08T07:51:09.475Z,15.60
2023-03-08T07:53:12.408Z,15.10
2023-03-08T07:55:14.572Z,14.80
2023-03-08T07:57:16.222Z,13.90
2023-03-08T07:59:17.807Z,14.52
2023-03-08T08:01:19.377Z,14.20
2023-03-08T08:03:21.655Z,14.50
2023-03-08T08:05:23.439Z,14.73
2023-03-08T08:07:25.282Z,14.52
2023-03-08T08:09:28.317Z,13.15
2023-03-08T08:11:30.224Z,14.30
2023-03-08T08:13:31.854Z,13.80
2023-03-08T08:15:33.423Z,14.30
2023-03-08T08:17:35.025Z,14.13
2023-03-08T08:19:37.265Z,13.60
2023-03-08T08:21:38.806Z,14.75
2023-03-08T08:23:49.537Z,14.27
2023-03-08T08:25:52.722Z,13.38
2023-03-08T08:27:54.418Z,15.10
2023-03-08T08:29:55.990Z,13.50
2023-03-08T08:31:57.964Z,16.05
2023-03-08T08:34:00.296Z,15.75
2023-03-08T08:36:04.817Z,15.25
2023-03-08T08:38:06.462Z,15.55
2023-03-08T08:40:09.433Z,15.23
2023-03-08T08:42:12.429Z,13.77
2023-03-08T08:44:14.008Z,16.02
2023-03-08T08:46:16.436Z,15.52
2023-03-08T08:48:18.062Z,14.60
2023-03-08T08:50:19.943Z,14.68
2023-03-08T08:52:21.547Z,15.10
2023-03-08T08:54:23.235Z,14.18
2023-03-08T08:56:28.498Z,15.13
2023-03-08T08:58:37.581Z,14.80
2023-03-08T09:00:39.975Z,13.05
2023-03-08T09:02:41.585Z,13.43
2023-03-08T09:04:43.364Z,14.27
2023-03-08T09:06:44.972Z,14.18
2023-03-08T09:08:49.380Z,13.00
2023-03-08T09:10:50.967Z,12.00
2023-03-08T09:12:52.629Z,12.00
2023-03-08T09:14:56.041Z,12.30
2023-03-08T09:16:57.804Z,11.85
2023-03-08T09:19:01.432Z,11.93
2023-03-08T09:21:03.004Z,11.70
2023-03-08T09:23:04.605Z,11.25
2023-03-08T09:25:07.802Z,10.57
2023-03-08T09:27:09.398Z,9.57
2023-03-08T09:29:14.073Z,9.52
2023-03-08T09:31:18.463Z,8.85
2023-03-08T09:33:20.216Z,9.07
2023-03-08T09:35:21.939Z,7.78
2023-03-08T09:37:23.585Z,7.13
2023-03-08T09:39:25.511Z,7.35
2023-03-08T09:41:48.526Z,7.13
2023-03-08T09:44:11.291Z,7.47
2023-03-08T09:46:15.145Z,6.90
2023-03-08T09:48:22.311Z,7.13
2023-03-08T09:50:35.814Z,7.40
2023-03-08T09:52:40.008Z,7.07
2023-03-08T09:54:42.604Z,7.70
2023-03-08T09:56:47.100Z,7.05
2023-03-08T09:58:53.261Z,7.18
2023-03-08T10:01:01.721Z,6.93
2023-03-08T10:03:31.845Z,6.70
2023-03-08T10:05:40.359Z,6.50
2023-03-08T10:07:51.201Z,6.32
2023-03-08T10:10:12.419Z,6.50
2023-03-08T10:12:23.203Z,6.95
2023-03-08T10:14:30.417Z,5.75
2023-03-08T10:16:35.493Z,5.50
2023-03-08T10:18:43.001Z,5.93
2023-03-08T10:20:45.386Z,6.00
2023-03-08T10:22:53.617Z,6.30
2023-03-08T10:25:00.819Z,6.30
2023-03-08T10:27:14.424Z,7.00
2023-03-08T10:29:16.001Z,7.05
2023-03-08T10:31:22.292Z,6.80
2023-03-08T10:33:27.106Z,6.78
2023-03-08T10:35:36.054Z,7.10
2023-03-08T10:37:37.754Z,6.70
2023-03-08T10:39:48.977Z,7.95
2023-03-08T10:41:54.154Z,7.95
2023-03-08T10:43:56.354Z,7.10
2023-03-08T10:45:59.908Z,7.93
2023-03-08T10:48:02.907Z,7.53
2023-03-08T10:50:11.878Z,8.70
2023-03-08T10:52:27.021Z,7.90
2023-03-08T10:54:29.103Z,8.07
2023-03-08T10:56:36.564Z,8.82
2023-03-08T10:58:39.588Z,9.10
2023-03-08T11:00:43.239Z,9.10
2023-03-08T11:02:45.062Z,9.23
2023-03-08T11:04:51.704Z,10.32
2023-03-08T11:06:53.763Z,8.82
2023-03-08T11:09:00.206Z,8.65
2023-03-08T11:11:07.217Z,8.90
2023-03-08T11:13:20.952Z,9.73
2023-03-08T11:15:22.693Z,10.00
2023-03-08T11:17:28.389Z,9.88
2023-03-08T11:19:38.673Z,10.60
2023-03-08T11:21:52.412Z,10.70
2023-03-08T11:24:04.242Z,8.75
2023-03-08T11:26:17.893Z,10.23
2023-03-08T11:28:32.365Z,10.70
2023-03-08T11:30:45.476Z,10.13
2023-03-08T11:33:02.273Z,10.18
2023-03-08T11:35:15.764Z,9.90
2023-03-08T11:37:29.426Z,12.43
2023-03-08T11:39:35.058Z,10.93
2023-03-08T11:41:44.326Z,10.45
2023-03-08T11:44:09.397Z,10.75
2023-03-08T11:46:19.580Z,10.15
2023-03-08T11:48:48.632Z,10.35
2023-03-08T11:50:54.266Z,10.75
2023-03-08T11:53:10.591Z,10.02
2023-03-08T11:55:35.571Z,10.65
2023-03-08T11:57:42.553Z,11.02
2023-03-08T11:59:48.029Z,11.40
2023-03-08T12:01:54.831Z,10.80
2023-03-08T12:04:04.433Z,10.73
2023-03-08T12:06:26.534Z,11.88
2023-03-08T12:08:35.099Z,11.07
2023-03-08T12:10:45.638Z,12.00
2023-03-08T12:12:53.307Z,11.35
2023-03-08T12:14:59.275Z,11.95
2023-03-08T12:17:07.302Z,11.13
2023-03-08T12:19:20.959Z,12.00
2023-03-08T12:21:34.922Z,11.52
2023-03-08T12:23:45.453Z,11.40
2023-03-08T12:25:52.295Z,12.32
2023-03-08T12:27:57.989Z,12.50
2023-03-08T12:30:11.557Z,11.00
2023-03-08T12:32:14.390Z,10.82
2023-03-08T12:34:27.353Z,12.30
2023-03-08T12:36:39.880Z,11.38
2023-03-08T12:38:43.082Z,10.65
2023-03-08T12:40:49.509Z,11.10
2023-03-08T12:42:51.180Z,11.70
2023-03-08T12:44:52.898Z,11.98
2023-03-08T12:47:03.340Z,11.40
2023-03-08T12:49:19.750Z,11.68
2023-03-08T12:51:24.873Z,11.55
2023-03-08T12:53:35.474Z,11.82
2023-03-08T12:55:37.045Z,10.82
2023-03-08T12:57:47.846Z,10.70
2023-03-08T12:59:56.830Z,10.15
2023-03-08T13:02:21.473Z,9.65
2023-03-08T13:04:39.712Z,9.57
2023-03-08T13:07:19.728Z,10.52
2023-03-08T13:09:26.087Z,8.68
2023-03-08T13:11:39.012Z,10.65
2023-03-08T13:13:50.484Z,10.60
2023-03-08T13:16:05.187Z,9.30
2023-03-08T13:18:14.996Z,10.57
2023-03-08T13:20:19.623Z,10.55
2023-03-08T13:22:25.612Z,11.07
2023-03-08T13:24:38.841Z,10.55
2023-03-08T13:26:57.234Z,9.90
2023-03-08T13:29:00.734Z,10.43
2023-03-08T13:31:03.951Z,9.85
2023-03-08T13:33:08.349Z,10.40
2023-03-08T13:35:15.510Z,10.75
2023-03-08T13:37:21.669Z,12.43
2023-03-08T13:39:25.711Z,10.65
2023-03-08T13:41:35.412Z,11.05
2023-03-08T13:43:37.039Z,10.85
2023-03-08T13:45:40.050Z,11.40
2023-03-08T13:47:44.225Z,11.10
2023-03-08T13:49:46.322Z,11.18
2023-03-08T13:51:50.715Z,11.77
2023-03-08T13:53:53.224Z,13.50
2023-03-08T13:55:57.546Z,13.25
2023-03-08T13:57:59.635Z,11.82
2023-03-08T14:00:20.039Z,10.75
2023-03-08T14:02:25.354Z,11.75
2023-03-08T14:04:29.182Z,14.00
2023-03-08T14:06:32.448Z,11.23
2023-03-08T14:08:34.165Z,12.38
2023-03-08T14:10:38.675Z,11.85
2023-03-08T14:12:40.486Z,12.52
2023-03-08T14:14:46.789Z,12.40
2023-03-08T14:16:52.783Z,14.75
2023-03-08T14:18:56.701Z,12.65
2023-03-08T14:21:14.243Z,11.00
2023-03-08T14:23:23.698Z,10.70
2023-03-08T14:25:30.695Z,10.80
2023-03-08T14:27:37.832Z,10.30
2023-03-08T14:29:40.670Z,9.98
2023-03-08T14:31:54.367Z,11.82
2023-03-08T14:33:59.343Z,10.38
2023-03-08T14:36:00.972Z,10.70
2023-03-08T14:38:03.809Z,10.13
2023-03-08T14:40:29.970Z,8.80
2023-03-08T14:42:40.356Z,8.77
2023-03-08T14:44:42.204Z,8.75
2023-03-08T14:46:45.944Z,8.82
2023-03-08T14:48:59.136Z,10.25
2023-03-08T14:51:02.377Z,8.77
2023-03-08T14:53:03.889Z,8.77
2023-03-08T14:55:20.397Z,8.60
2023-03-08T14:57:23.728Z,8.75
2023-03-08T14:59:28.108Z,7.25
2023-03-08T15:01:32.004Z,8.45
2023-03-08T15:03:34.044Z,7.00
2023-03-08T15:05:36.964Z,7.80
2023-03-08T15:07:38.606Z,11.13
2023-03-08T15:09:40.717Z,12.82
2023-03-08T15:11:42.809Z,8.65
2023-03-08T15:13:44.494Z,8.85
2023-03-08T15:15:46.861Z,9.57
2023-03-08T15:17:52.443Z,8.27
2023-03-08T15:19:54.025Z,7.95
2023-03-08T15:21:56.992Z,8.68
2023-03-08T15:23:58.870Z,9.55
2023-03-08T15:26:00.545Z,7.05
2023-03-08T15:28:02.549Z,7.50
2023-03-08T15:30:05.012Z,6.43
2023-03-08T15:32:07.613Z,7.95
2023-03-08T15:34:09.304Z,7.20
2023-03-08T15:36:13.971Z,7.28
2023-03-08T15:38:18.985Z,6.60
2023-03-08T15:40:22.790Z,6.05
2023-03-08T15:42:24.339Z,6.90
2023-03-08T15:44:25.932Z,6.50
2023-03-08T15:46:27.667Z,6.45
2023-03-08T15:48:29.292Z,7.28
2023-03-08T15:50:32.021Z,6.78
2023-03-08T15:52:33.682Z,6.80
2023-03-08T15:54:36.557Z,5.55
2023-03-08T15:56:38.242Z,7.00
2023-03-08T15:58:39.872Z,6.00
2023-03-08T16:00:41.420Z,7.28
2023-03-08T16:02:43.242Z,6.90
2023-03-08T16:04:45.097Z,6.85
2023-03-08T16:06:46.700Z,6.43
2023-03-08T16:08:48.402Z,6.03
2023-03-08T16:10:51.998Z,5.95
2023-03-08T16:12:53.865Z,5.68
2023-03-08T16:14:55.889Z,5.60
2023-03-08T16:16:57.511Z,3.60
2023-03-08T16:18:59.159Z,2.65
2023-03-08T16:21:01.134Z,3.03
2023-03-08T16:23:02.767Z,3.60
2023-03-08T16:25:05.258Z,3.30
2023-03-08T16:27:08.447Z,3.75
2023-03-08T16:29:10.053Z,3.50
2023-03-08T16:31:12.132Z,2.80
2023-03-08T16:33:14.618Z,2.10
2023-03-08T16:35:17.225Z,1.65
2023-03-08T16:37:19.105Z,1.80
2023-03-08T16:39:21.528Z,2.00
2023-03-08T16:41:23.248Z,1.90
2023-03-08T16:43:32.257Z,1.80
2023-03-08T16:45:53.333Z,1.38
2023-03-08T16:47:54.955Z,10.00
2023-03-08T16:49:56.507Z,6.60
2023-03-08T16:51:58.330Z,2.15
2023-03-08T16:53:59.926Z,1.35
2023-03-08T16:56:01.565Z,1.15
2023-03-08T16:58:03.212Z,1.50
2023-03-08T17:00:08.112Z,1.20
2023-03-08T17:02:14.036Z,0.80
2023-03-08T17:04:16.110Z,0.90
2023-03-08T17:06:19.968Z,1.50
2023-03-08T17:08:21.535Z,1.15
2023-03-08T17:10:23.273Z,1.27
2023-03-08T17:12:25.432Z,1.42
2023-03-08T17:14:26.960Z,1.20
2023-03-08T17:16:31.757Z,1.30
2023-03-08T17:18:33.342Z,1.20
2023-03-08T17:20:35.812Z,1.30
2023-03-08T17:22:37.396Z,1.40
2023-03-08T17:24:38.994Z,1.50
2023-03-08T17:26:42.248Z,1.20
2023-03-08T17:28:44.244Z,1.52
2023-03-08T17:30:46.038Z,1.45
2023-03-08T17:32:48.946Z,1.40
2023-03-08T17:34:50.632Z,1.27
2023-03-08T17:36:52.610Z,1.75
2023-03-08T17:38:54.913Z,1.70
2023-03-08T17:40:56.527Z,1.30
2023-03-08T17:42:58.134Z,3.13
2023-03-08T17:44:59.777Z,1.15
2023-03-08T17:47:01.450Z,0.90
2023-03-08T17:49:04.348Z,1.83
2023-03-08T17:51:07.619Z,1.30
2023-03-08T17:53:09.245Z,1.77
2023-03-08T17:55:11.193Z,1.98
2023-03-08T17:57:12.743Z,2.55
2023-03-08T17:59:16.109Z,2.17
2023-03-08T18:01:19.786Z,2.05
2023-03-08T18:03:21.925Z,2.00
2023-03-08T18:05:24.912Z,2.05
2023-03-08T18:07:26.633Z,2.38
2023-03-08T18:09:28.180Z,2.35
2023-03-08T18:11:29.827Z,2.17
2023-03-08T18:13:31.420Z,2.40
2023-03-08T18:15:32.978Z,2.20
2023-03-08T18:17:34.586Z,1.77
2023-03-08T18:19:36.197Z,1.98
2023-03-08T18:21:41.453Z,2.50
2023-03-08T18:23:43.503Z,1.85
2023-03-08T18:25:45.082Z,2.13
2023-03-08T18:27:46.747Z,2.60
2023-03-08T18:29:48.420Z,2.50
2023-03-08T18:31:50.085Z,2.67
2023-03-08T18:33:54.216Z,4.60
2023-03-08T18:35:57.109Z,4.80
2023-03-08T18:38:00.864Z,6.25
2023-03-08T18:40:09.875Z,8.18
2023-03-08T18:42:11.504Z,5.60
2023-03-08T18:44:13.106Z,6.85
2023-03-08T18:46:14.723Z,5.43
2023-03-08T18:48:16.349Z,6.63
2023-03-08T18:50:19.245Z,7.35
2023-03-08T18:52:20.807Z,5.30
2023-03-08T18:54:23.765Z,6.70
2023-03-08T18:56:26.342Z,8.45
2023-03-08T18:58:28.636Z,6.60
2023-03-08T19:00:30.247Z,4.65
2023-03-08T19:02:31.921Z,5.50
2023-03-08T19:04:38.383Z,5.85
2023-03-08T19:06:40.031Z,7.40
2023-03-08T19:08:41.996Z,9.35
2023-03-08T19:10:45.009Z,7.65
2023-03-08T19:12:46.610Z,8.10
2023-03-08T19:14:48.218Z,9.00
2023-03-08T19:16:49.910Z,9.65
2023-03-08T19:18:54.070Z,8.48
2023-03-08T19:21:48.027Z,7.50
2023-03-08T19:23:49.730Z,12.98
2023-03-08T19:25:52.652Z,11.00
2023-03-08T19:30:50.778Z,11.05
2023-03-08T19:32:52.475Z,9.80
2023-03-08T19:34:54.726Z,11.25
2023-03-08T19:36:57.276Z,11.32
2023-03-08T19:38:58.833Z,11.32
2023-03-08T19:41:01.733Z,12.00
2023-03-08T19:43:03.542Z,9.30
2023-03-08T19:45:06.072Z,8.68
2023-03-08T19:47:07.749Z,7.47
2023-03-08T19:49:12.889Z,11.20
2023-03-08T19:51:15.034Z,4.57
2023-03-08T19:53:16.761Z,5.50
2023-03-08T19:55:18.388Z,7.78
2023-03-08T19:57:21.353Z,6.63
2023-03-08T19:59:23.670Z,4.78
2023-03-08T20:01:26.077Z,3.88
2023-03-08T20:03:27.680Z,4.30
2023-03-08T20:05:29.511Z,4.20
2023-03-08T20:07:31.046Z,3.90
2023-03-08T20:09:32.597Z,4.30
2023-03-08T20:11:34.764Z,4.40
2023-03-08T20:13:37.645Z,4.50
2023-03-08T20:15:39.239Z,5.10
2023-03-08T20:17:40.825Z,4.65
2023-03-08T20:19:42.738Z,4.43
2023-03-08T20:21:44.365Z,5.30
2023-03-08T20:23:46.252Z,4.18
2023-03-08T20:25:47.777Z,5.13
2023-03-08T20:27:49.389Z,3.25
2023-03-08T20:29:53.457Z,3.63
2023-03-08T20:31:55.172Z,2.83
2023-03-08T20:33:57.465Z,2.97
2023-03-08T20:36:00.131Z,2.97
2023-03-08T20:38:01.753Z,2.50
2023-03-08T20:40:03.845Z,2.40
2023-03-08T20:42:05.568Z,2.10
2023-03-08T20:44:07.163Z,2.80
2023-03-08T20:46:12.643Z,3.33
2023-03-08T20:48:14.229Z,3.67
2023-03-08T20:50:19.065Z,5.20
2023-03-08T20:52:20.690Z,3.03
2023-03-08T20:54:22.428Z,3.15
2023-03-08T20:56:25.609Z,3.28
2023-03-08T20:58:27.169Z,3.10
2023-03-08T21:00:28.806Z,2.40
2023-03-08T21:02:31.710Z,3.58
2023-03-08T21:04:33.615Z,3.80
2023-03-08T21:06:35.235Z,3.20
2023-03-08T21:11:33.456Z,3.70
2023-03-08T21:13:38.795Z,2.90
2023-03-08T21:15:40.406Z,2.75
2023-03-08T21:17:43.330Z,3.60
2023-03-08T21:19:44.947Z,3.92
2023-03-08T21:21:46.530Z,3.40
2023-03-08T21:23:48.225Z,3.50
2023-03-08T21:25:50.093Z,3.95
2023-03-08T21:27:51.851Z,3.25
2023-03-08T21:29:54.462Z,4.00
2023-03-08T21:31:56.113Z,3.30
2023-03-08T21:34:01.528Z,3.83
2023-03-08T21:36:03.168Z,3.40
2023-03-08T21:38:05.019Z,3.75
2023-03-08T21:40:07.722Z,3.42
2023-03-08T21:42:09.228Z,3.30
2023-03-08T21:44:14.288Z,2.80
2023-03-08T21:46:16.287Z,2.47
2023-03-08T21:48:17.898Z,2.40
2023-03-08T21:50:21.021Z,2.30
2023-03-08T21:52:25.116Z,2.40
2023-03-08T21:54:28.119Z,2.60
2023-03-08T21:56:29.924Z,2.15
2023-03-08T21:58:31.595Z,2.70
2023-03-08T22:00:33.266Z,2.95
2023-03-08T22:02:35.043Z,2.72
2023-03-08T22:04:38.222Z,2.38
2023-03-08T22:06:41.146Z,2.53
2023-03-08T22:08:42.960Z,3.00
2023-03-08T22:10:44.578Z,2.90
2023-03-08T22:12:46.175Z,2.95
2023-03-08T22:14:47.849Z,2.33
2023-03-08T22:16:49.532Z,2.20
2023-03-08T22:18:52.689Z,2.65
2023-03-08T22:20:54.283Z,2.40
2023-03-08T22:22:57.230Z,1.90
2023-03-08T22:24:58.948Z,2.22
2023-03-08T22:27:00.590Z,2.53
2023-03-08T22:29:02.480Z,2.40
2023-03-08T22:31:09.390Z,2.40
2023-03-08T22:33:11.042Z,2.67
2023-03-08T22:35:12.673Z,3.10
2023-03-08T22:37:14.237Z,2.90
2023-03-08T22:39:17.157Z,3.80
2023-03-08T22:41:20.324Z,3.35
2023-03-08T22:43:21.865Z,3.17
2023-03-08T22:45:23.413Z,3.80
2023-03-08T22:47:25.098Z,3.28
2023-03-08T22:49:26.665Z,3.38
2023-03-08T22:51:28.436Z,2.70
2023-03-08T22:53:30.133Z,2.85
2023-03-08T22:55:33.520Z,2.70
2023-03-08T22:57:36.409Z,2.47
2023-03-08T22:59:37.965Z,2.60
2023-03-08T23:01:39.782Z,2.78
2023-03-08T23:03:41.393Z,2.60
2023-03-08T23:05:43.094Z,2.85
2023-03-08T23:07:44.946Z,3.15
2023-03-08T23:09:46.559Z,2.67
2023-03-08T23:11:49.647Z,2.83
2023-03-08T23:13:51.335Z,2.90
2023-03-08T23:15:52.995Z,3.15
2023-03-08T23:17:54.551Z,3.40
2023-03-08T23:19:56.219Z,2.75
2023-03-08T23:21:57.867Z,2.97
2023-03-08T23:23:59.799Z,3.65
2023-03-08T23:26:03.447Z,2.80
2023-03-08T23:28:07.034Z,2.60
2023-03-08T23:30:12.809Z,3.45
2023-03-08T23:32:14.491Z,3.10
2023-03-08T23:34:16.147Z,2.75
2023-03-08T23:36:20.254Z,3.40
2023-03-08T23:38:21.786Z,3.65
2023-03-08T23:40:23.384Z,3.03
2023-03-08T23:42:24.982Z,3.20
2023-03-08T23:44:28.079Z,3.67
2023-03-08T23:46:30.104Z,3.33
2023-03-08T23:48:31.621Z,4.18
2023-03-08T23:50:33.435Z,3.90
2023-03-08T23:52:35.048Z,3.78
2023-03-08T23:54:36.609Z,3.75
2023-03-08T23:56:40.130Z,4.18
2023-03-08T23:58:41.724Z,3.72
